< < Back
Terminal Aerodrome Forecast


Current Version              Previous Versions:   1  2  3  4  5  6  7  8  9  

Terminal Aerodrome Forecast

983
FTUS42 KGSP 292320
TAFHKY
TAF
KHKY 292320Z 3000/3024 19004KT P6SM SCT050 BKN170
     FM300400 20003KT P6SM SCT045 BKN090
     FM301700 17006KT P6SM SCT045 BKN060 PROB30 3017/3021 4SM TSRA
      BKN400CB
     FM302100 19004KT P6SM BKN045=

Latest METAR

639
SAUS70 KWBC 301800 RRI
MTRHKY
METAR KHKY 301753Z 33003KT 10SM OVC100 24/17 A3019 RMK AO2 SLP201
T02440167 10244 20194 58006


USA.gov is the U.S. government's official web portal to all federal, state and local government web resources and services.